createdAt,value
2023-02-20T00:00:52.752Z,1.40
2023-02-20T00:03:19.250Z,1.40
2023-02-20T00:05:46.682Z,1.40
2023-02-20T00:08:13.156Z,1.48
2023-02-20T00:10:39.939Z,1.50
2023-02-20T00:13:06.361Z,1.48
2023-02-20T00:15:33.036Z,1.50
2023-02-20T00:17:59.588Z,1.42
2023-02-20T00:20:27.473Z,1.42
2023-02-20T00:22:55.474Z,1.50
2023-02-20T00:25:22.479Z,1.50
2023-02-20T00:27:48.963Z,1.50
2023-02-20T00:30:19.555Z,1.50
2023-02-20T00:32:48.026Z,1.50
2023-02-20T00:35:17.126Z,1.58
2023-02-20T00:37:45.043Z,1.60
2023-02-20T00:40:12.146Z,1.64
2023-02-20T00:42:38.592Z,1.70
2023-02-20T00:45:06.870Z,1.60
2023-02-20T00:47:33.543Z,1.70
2023-02-20T00:49:59.997Z,1.70
2023-02-20T00:52:26.558Z,1.70
2023-02-20T00:54:53.209Z,1.70
2023-02-20T00:57:19.645Z,1.66
2023-02-20T00:59:46.427Z,1.70
2023-02-20T01:02:12.906Z,1.56
2023-02-20T01:04:39.325Z,1.60
2023-02-20T01:07:05.776Z,1.60
2023-02-20T01:09:32.538Z,1.68
2023-02-20T01:11:59.146Z,1.70
2023-02-20T01:14:25.635Z,1.68
2023-02-20T01:16:53.639Z,1.60
2023-02-20T01:19:22.891Z,1.60
2023-02-20T01:21:52.926Z,1.60
2023-02-20T01:24:19.674Z,1.60
2023-02-20T01:26:49.007Z,1.50
2023-02-20T01:29:16.628Z,1.40
2023-02-20T01:31:51.563Z,1.44
2023-02-20T01:34:20.260Z,1.40
2023-02-20T01:36:53.130Z,1.40
2023-02-20T01:39:24.196Z,1.40
2023-02-20T01:41:57.493Z,1.42
2023-02-20T01:44:32.907Z,1.50
2023-02-20T01:47:01.347Z,1.50
2023-02-20T01:49:36.074Z,1.54
2023-02-20T01:52:20.066Z,1.60
2023-02-20T01:54:59.182Z,1.50
2023-02-20T01:57:31.292Z,1.50
2023-02-20T02:00:10.073Z,1.50
2023-02-20T02:02:46.192Z,1.44
2023-02-20T02:05:13.766Z,1.40
2023-02-20T02:07:40.878Z,1.40
2023-02-20T02:12:40.196Z,1.40
2023-02-20T02:15:15.971Z,1.40
2023-02-20T02:18:17.863Z,1.50
2023-02-20T02:21:12.177Z,1.48
2023-02-20T02:24:18.320Z,1.50
2023-02-20T02:27:43.536Z,1.40
2023-02-20T02:30:25.182Z,1.40
2023-02-20T02:33:20.164Z,1.42
2023-02-20T02:36:21.427Z,1.50
2023-02-20T02:39:12.177Z,1.50
2023-02-20T02:42:06.238Z,1.50
2023-02-20T02:44:44.900Z,1.50
2023-02-20T02:47:22.036Z,1.60
2023-02-20T02:50:10.752Z,1.60
2023-02-20T02:52:49.506Z,1.70
2023-02-20T02:55:29.696Z,1.70
2023-02-20T02:57:57.063Z,1.70
2023-02-20T03:00:48.195Z,1.70
2023-02-20T03:03:28.115Z,1.60
2023-02-20T03:06:13.019Z,1.66
2023-02-20T03:08:56.749Z,1.68
2023-02-20T03:11:27.111Z,1.60
2023-02-20T03:14:24.321Z,1.60
2023-02-20T03:17:38.119Z,1.60
2023-02-20T03:20:16.477Z,1.60
2023-02-20T03:22:58.475Z,1.60
2023-02-20T03:25:37.956Z,1.60
2023-02-20T03:28:31.324Z,1.60
2023-02-20T03:31:16.762Z,1.60
2023-02-20T03:34:12.285Z,1.60
2023-02-20T03:37:11.253Z,1.60
2023-02-20T03:40:02.440Z,1.58
2023-02-20T03:42:52.426Z,1.56
2023-02-20T03:45:23.241Z,1.50
2023-02-20T03:47:54.148Z,1.50
2023-02-20T03:50:40.010Z,1.50
2023-02-20T03:53:06.525Z,1.50
2023-02-20T03:55:33.351Z,1.50
2023-02-20T03:58:08.688Z,1.40
2023-02-20T04:00:49.209Z,1.50
2023-02-20T04:03:21.860Z,1.50
2023-02-20T04:05:53.750Z,1.50
2023-02-20T04:08:35.661Z,1.60
2023-02-20T04:11:25.171Z,1.56
2023-02-20T04:13:55.042Z,1.60
2023-02-20T04:16:22.932Z,1.60
2023-02-20T04:18:49.837Z,1.60
2023-02-20T04:21:29.393Z,1.60
2023-02-20T04:24:09.070Z,1.60
2023-02-20T04:26:36.558Z,1.62
2023-02-20T04:29:04.814Z,1.64
2023-02-20T04:31:32.385Z,1.70
2023-02-20T04:33:58.924Z,1.70
2023-02-20T04:36:26.874Z,1.70
2023-02-20T04:38:53.799Z,1.70
2023-02-20T04:41:20.388Z,1.70
2023-02-20T04:43:47.828Z,1.60
2023-02-20T04:46:14.666Z,1.70
2023-02-20T04:48:41.404Z,1.70
2023-02-20T04:51:08.229Z,1.80
2023-02-20T04:53:34.680Z,1.80
2023-02-20T04:56:01.084Z,1.70
2023-02-20T04:58:27.699Z,1.80
2023-02-20T05:00:54.057Z,1.70
2023-02-20T05:03:20.472Z,1.80
2023-02-20T05:05:46.976Z,1.80
2023-02-20T05:08:13.410Z,1.80
2023-02-20T05:10:40.086Z,1.88
2023-02-20T05:13:06.464Z,1.90
2023-02-20T05:15:33.063Z,1.90
2023-02-20T05:17:59.622Z,1.92
2023-02-20T05:20:46.091Z,2.00
2023-02-20T05:23:13.224Z,2.00
2023-02-20T05:25:39.718Z,2.00
2023-02-20T05:28:06.552Z,2.00
2023-02-20T05:30:33.082Z,1.94
2023-02-20T05:32:59.490Z,1.94
2023-02-20T05:35:25.934Z,1.90
2023-02-20T05:37:52.350Z,1.90
2023-02-20T05:40:18.853Z,1.90
2023-02-20T05:42:45.311Z,1.90
2023-02-20T05:45:11.860Z,1.90
2023-02-20T05:47:38.686Z,1.90
2023-02-20T05:50:06.084Z,1.90
2023-02-20T05:52:32.773Z,1.90
2023-02-20T05:54:59.337Z,1.90
2023-02-20T05:57:25.877Z,2.00
2023-02-20T05:59:52.309Z,2.00
2023-02-20T06:02:18.731Z,2.00
2023-02-20T06:04:45.311Z,2.00
2023-02-20T06:07:11.955Z,2.00
2023-02-20T06:09:43.588Z,2.00
2023-02-20T06:12:10.596Z,2.06
2023-02-20T06:14:37.142Z,2.10
2023-02-20T06:17:03.986Z,2.10
2023-02-20T06:19:30.494Z,2.02
2023-02-20T06:21:58.801Z,2.00
2023-02-20T06:24:25.829Z,2.00
2023-02-20T06:26:56.197Z,2.00
2023-02-20T06:29:23.572Z,2.10
2023-02-20T06:31:50.209Z,2.10
2023-02-20T06:34:16.981Z,2.10
2023-02-20T06:36:43.798Z,2.20
2023-02-20T06:39:20.074Z,2.30
2023-02-20T06:41:46.466Z,2.40
2023-02-20T06:44:12.894Z,2.40
2023-02-20T06:46:39.466Z,2.50
2023-02-20T06:49:05.901Z,2.50
2023-02-20T06:51:35.199Z,2.50
2023-02-20T06:54:03.999Z,2.50
2023-02-20T06:56:33.410Z,2.52
2023-02-20T06:59:00.475Z,2.60
2023-02-20T07:01:30.934Z,2.64
2023-02-20T07:04:02.115Z,2.70
2023-02-20T07:06:29.212Z,2.80
2023-02-20T07:08:55.608Z,2.90
2023-02-20T07:11:23.789Z,3.00
2023-02-20T07:13:50.976Z,3.10
2023-02-20T07:16:18.385Z,3.20
2023-02-20T07:18:45.436Z,3.20
2023-02-20T07:21:11.961Z,3.20
2023-02-20T07:23:38.406Z,3.10
2023-02-20T07:26:05.154Z,3.10
2023-02-20T07:28:35.447Z,3.10
2023-02-20T07:31:03.025Z,3.20
2023-02-20T07:33:29.788Z,3.30
2023-02-20T07:35:56.230Z,3.44
2023-02-20T07:38:22.597Z,3.50
2023-02-20T07:40:49.019Z,3.58
2023-02-20T07:43:15.534Z,3.60
2023-02-20T07:45:43.067Z,3.70
2023-02-20T07:48:09.505Z,3.80
2023-02-20T07:50:35.977Z,3.86
2023-02-20T07:53:02.464Z,3.90
2023-02-20T07:55:28.968Z,4.00
2023-02-20T07:57:58.413Z,4.10
2023-02-20T08:00:27.337Z,4.12
2023-02-20T08:02:54.301Z,4.10
2023-02-20T08:05:21.205Z,4.20
2023-02-20T08:07:50.001Z,4.30
2023-02-20T08:10:20.891Z,4.30
2023-02-20T08:12:49.399Z,4.30
2023-02-20T08:15:19.373Z,4.30
2023-02-20T08:17:47.368Z,4.28
2023-02-20T08:20:20.806Z,4.30
2023-02-20T08:22:50.328Z,4.30
2023-02-20T08:25:18.628Z,4.40
2023-02-20T08:27:49.188Z,4.50
2023-02-20T08:30:24.781Z,4.54
2023-02-20T08:32:53.390Z,4.60
2023-02-20T08:35:21.324Z,4.60
2023-02-20T08:37:47.734Z,4.60
2023-02-20T08:40:14.214Z,4.60
2023-02-20T08:42:40.688Z,4.60
2023-02-20T08:45:09.288Z,4.60
2023-02-20T08:47:36.847Z,4.52
2023-02-20T08:50:04.018Z,4.50
2023-02-20T08:52:30.452Z,4.50
2023-02-20T08:54:56.865Z,4.50
2023-02-20T08:57:23.307Z,4.50
2023-02-20T08:59:49.744Z,4.50
2023-02-20T09:02:20.996Z,4.50
2023-02-20T09:04:47.692Z,4.48
2023-02-20T09:07:14.662Z,4.40
2023-02-20T09:09:41.302Z,4.30
2023-02-20T09:12:09.096Z,4.30
2023-02-20T09:14:36.747Z,4.40
2023-02-20T09:17:04.923Z,4.40
2023-02-20T09:19:31.908Z,4.40
2023-02-20T09:21:58.771Z,4.40
2023-02-20T09:24:25.297Z,4.30
2023-02-20T09:26:51.701Z,4.22
2023-02-20T09:29:18.911Z,4.12
2023-02-20T09:31:45.390Z,4.10
2023-02-20T09:34:12.136Z,4.10
2023-02-20T09:36:38.627Z,4.00
2023-02-20T09:39:05.032Z,4.00
2023-02-20T09:41:58.727Z,4.00
2023-02-20T09:44:38.960Z,4.10
2023-02-20T09:47:32.931Z,4.00
2023-02-20T09:50:04.710Z,4.00
2023-02-20T09:52:39.941Z,4.00
2023-02-20T09:55:14.586Z,4.00
2023-02-20T09:57:42.508Z,4.00
2023-02-20T10:00:21.825Z,4.00
2023-02-20T10:03:06.616Z,4.10
2023-02-20T10:05:34.771Z,4.10
2023-02-20T10:08:01.165Z,4.14
2023-02-20T10:10:34.123Z,4.20
2023-02-20T10:13:36.033Z,4.20
2023-02-20T10:16:33.228Z,4.30
2023-02-20T10:19:38.497Z,4.28
2023-02-20T10:22:25.845Z,4.26
2023-02-20T10:25:07.996Z,4.30
2023-02-20T10:28:02.956Z,4.34
2023-02-20T10:30:37.007Z,4.50
2023-02-20T10:33:25.188Z,4.50
2023-02-20T10:36:08.751Z,4.60
2023-02-20T10:38:55.644Z,4.66
2023-02-20T10:41:38.076Z,4.70
2023-02-20T10:44:57.709Z,4.70
2023-02-20T10:47:42.956Z,4.60
2023-02-20T10:50:14.940Z,4.60
2023-02-20T10:52:53.616Z,4.60
2023-02-20T10:55:33.820Z,4.70
2023-02-20T10:58:13.816Z,4.78
